sensor_id;sensor_type;location;lat;lon;timestamp;temperature;humidity
32787;DHT22;19139;49.372;8.580;2022-09-25T00:01:00;20.30;94.30
32787;DHT22;19139;49.372;8.580;2022-09-25T00:03:28;20.30;94.20
32787;DHT22;19139;49.372;8.580;2022-09-25T00:06:10;20.30;94.20
32787;DHT22;19139;49.372;8.580;2022-09-25T00:08:42;20.30;94.20
32787;DHT22;19139;49.372;8.580;2022-09-25T00:11:11;20.30;94.20
32787;DHT22;19139;49.372;8.580;2022-09-25T00:13:39;20.30;94.20
32787;DHT22;19139;49.372;8.580;2022-09-25T00:16:10;20.30;94.20
32787;DHT22;19139;49.372;8.580;2022-09-25T00:18:42;20.30;94.20
32787;DHT22;19139;49.372;8.580;2022-09-25T00:21:33;20.30;94.20
32787;DHT22;19139;49.372;8.580;2022-09-25T00:24:03;20.30;94.20
32787;DHT22;19139;49.372;8.580;2022-09-25T00:26:33;20.30;94.20
32787;DHT22;19139;49.372;8.580;2022-09-25T00:29:00;20.30;94.60
32787;DHT22;19139;49.372;8.580;2022-09-25T00:31:32;20.30;94.20
32787;DHT22;19139;49.372;8.580;2022-09-25T00:34:01;20.30;94.20
32787;DHT22;19139;49.372;8.580;2022-09-25T00:36:28;20.30;94.20
32787;DHT22;19139;49.372;8.580;2022-09-25T00:38:55;20.30;94.20
32787;DHT22;19139;49.372;8.580;2022-09-25T00:41:24;20.30;94.20
32787;DHT22;19139;49.372;8.580;2022-09-25T00:43:54;20.30;94.20
32787;DHT22;19139;49.372;8.580;2022-09-25T00:49:08;20.30;94.20
32787;DHT22;19139;49.372;8.580;2022-09-25T00:51:47;20.30;94.20
32787;DHT22;19139;49.372;8.580;2022-09-25T00:54:23;20.30;94.20
32787;DHT22;19139;49.372;8.580;2022-09-25T00:56:52;20.30;94.20
32787;DHT22;19139;49.372;8.580;2022-09-25T01:00:04;20.30;94.10
32787;DHT22;19139;49.372;8.580;2022-09-25T01:02:32;20.30;94.10
32787;DHT22;19139;49.372;8.580;2022-09-25T01:05:07;20.30;94.10
32787;DHT22;19139;49.372;8.580;2022-09-25T01:07:37;20.30;94.10
32787;DHT22;19139;49.372;8.580;2022-09-25T01:10:11;20.30;94.10
32787;DHT22;19139;49.372;8.580;2022-09-25T01:12:45;20.30;94.10
32787;DHT22;19139;49.372;8.580;2022-09-25T01:15:19;20.30;94.10
32787;DHT22;19139;49.372;8.580;2022-09-25T01:28:59;20.30;94.10
32787;DHT22;19139;49.372;8.580;2022-09-25T01:34:27;20.30;94.10
32787;DHT22;19139;49.372;8.580;2022-09-25T01:37:02;20.30;94.10
32787;DHT22;19139;49.372;8.580;2022-09-25T01:39:44;20.30;94.10
32787;DHT22;19139;49.372;8.580;2022-09-25T01:42:22;20.30;94.10
32787;DHT22;19139;49.372;8.580;2022-09-25T01:45:00;20.30;94.10
32787;DHT22;19139;49.372;8.580;2022-09-25T01:47:35;20.30;94.10
32787;DHT22;19139;49.372;8.580;2022-09-25T01:50:19;20.30;94.10
32787;DHT22;19139;49.372;8.580;2022-09-25T01:52:56;20.30;94.10
32787;DHT22;19139;49.372;8.580;2022-09-25T01:55:34;20.30;94.10
32787;DHT22;19139;49.372;8.580;2022-09-25T02:00:48;20.30;94.00
32787;DHT22;19139;49.372;8.580;2022-09-25T02:03:46;20.30;94.00
32787;DHT22;19139;49.372;8.580;2022-09-25T02:06:16;20.30;94.00
32787;DHT22;19139;49.372;8.580;2022-09-25T02:09:03;20.30;94.00
32787;DHT22;19139;49.372;8.580;2022-09-25T02:11:39;20.30;94.00
32787;DHT22;19139;49.372;8.580;2022-09-25T02:17:25;20.30;94.00
32787;DHT22;19139;49.372;8.580;2022-09-25T02:20:12;20.30;94.00
32787;DHT22;19139;49.372;8.580;2022-09-25T02:23:16;20.30;94.00
32787;DHT22;19139;49.372;8.580;2022-09-25T02:25:48;20.30;94.00
32787;DHT22;19139;49.372;8.580;2022-09-25T02:28:25;20.30;94.00
32787;DHT22;19139;49.372;8.580;2022-09-25T02:30:53;20.30;94.30
32787;DHT22;19139;49.372;8.580;2022-09-25T02:33:21;20.30;94.00
32787;DHT22;19139;49.372;8.580;2022-09-25T02:35:54;20.30;94.00
32787;DHT22;19139;49.372;8.580;2022-09-25T02:38:25;20.30;94.00
32787;DHT22;19139;49.372;8.580;2022-09-25T02:41:02;20.30;94.30
32787;DHT22;19139;49.372;8.580;2022-09-25T02:43:49;20.30;93.90
32787;DHT22;19139;49.372;8.580;2022-09-25T02:46:38;20.30;93.90
32787;DHT22;19139;49.372;8.580;2022-09-25T02:55:01;20.30;93.90
32787;DHT22;19139;49.372;8.580;2022-09-25T03:00:42;20.30;93.90
32787;DHT22;19139;49.372;8.580;2022-09-25T03:03:16;20.30;93.90
32787;DHT22;19139;49.372;8.580;2022-09-25T03:05:45;20.20;93.90
32787;DHT22;19139;49.372;8.580;2022-09-25T03:08:13;20.30;93.90
32787;DHT22;19139;49.372;8.580;2022-09-25T03:11:09;20.30;93.90
32787;DHT22;19139;49.372;8.580;2022-09-25T03:13:43;20.30;93.90
32787;DHT22;19139;49.372;8.580;2022-09-25T03:19:12;20.30;93.90
32787;DHT22;19139;49.372;8.580;2022-09-25T03:21:45;20.30;93.90
32787;DHT22;19139;49.372;8.580;2022-09-25T03:24:12;20.30;93.90
32787;DHT22;19139;49.372;8.580;2022-09-25T03:26:45;20.30;93.90
32787;DHT22;19139;49.372;8.580;2022-09-25T03:29:12;20.20;93.90
32787;DHT22;19139;49.372;8.580;2022-09-25T03:31:45;20.30;93.90
32787;DHT22;19139;49.372;8.580;2022-09-25T03:34:14;20.30;93.90
32787;DHT22;19139;49.372;8.580;2022-09-25T03:36:45;20.20;93.90
32787;DHT22;19139;49.372;8.580;2022-09-25T03:39:14;20.30;93.90
32787;DHT22;19139;49.372;8.580;2022-09-25T03:41:43;20.20;93.90
32787;DHT22;19139;49.372;8.580;2022-09-25T03:44:15;20.20;93.90
32787;DHT22;19139;49.372;8.580;2022-09-25T03:46:41;20.30;93.90
32787;DHT22;19139;49.372;8.580;2022-09-25T03:49:08;20.20;93.80
32787;DHT22;19139;49.372;8.580;2022-09-25T03:51:36;20.20;93.80
32787;DHT22;19139;49.372;8.580;2022-09-25T03:54:04;20.30;93.90
32787;DHT22;19139;49.372;8.580;2022-09-25T03:56:31;20.30;93.90
32787;DHT22;19139;49.372;8.580;2022-09-25T03:58:58;20.30;93.90
32787;DHT22;19139;49.372;8.580;2022-09-25T04:01:25;20.30;93.80
32787;DHT22;19139;49.372;8.580;2022-09-25T04:03:53;20.30;93.80
32787;DHT22;19139;49.372;8.580;2022-09-25T04:06:23;20.20;93.80
32787;DHT22;19139;49.372;8.580;2022-09-25T04:08:51;20.20;93.80
32787;DHT22;19139;49.372;8.580;2022-09-25T04:11:20;20.30;93.80
32787;DHT22;19139;49.372;8.580;2022-09-25T04:13:47;20.30;93.80
32787;DHT22;19139;49.372;8.580;2022-09-25T04:16:15;20.30;93.80
32787;DHT22;19139;49.372;8.580;2022-09-25T04:18:42;20.20;93.80
32787;DHT22;19139;49.372;8.580;2022-09-25T04:21:11;20.30;93.80
32787;DHT22;19139;49.372;8.580;2022-09-25T04:23:39;20.20;93.80
32787;DHT22;19139;49.372;8.580;2022-09-25T04:26:06;20.30;93.80
32787;DHT22;19139;49.372;8.580;2022-09-25T04:28:33;20.30;94.20
32787;DHT22;19139;49.372;8.580;2022-09-25T04:31:01;20.30;93.80
32787;DHT22;19139;49.372;8.580;2022-09-25T04:33:29;20.20;93.80
32787;DHT22;19139;49.372;8.580;2022-09-25T04:36:15;20.30;93.80
32787;DHT22;19139;49.372;8.580;2022-09-25T04:38:41;20.20;93.80
32787;DHT22;19139;49.372;8.580;2022-09-25T04:41:09;20.30;93.80
32787;DHT22;19139;49.372;8.580;2022-09-25T04:43:36;20.20;93.70
32787;DHT22;19139;49.372;8.580;2022-09-25T04:46:05;20.20;93.70
32787;DHT22;19139;49.372;8.580;2022-09-25T04:48:33;20.20;93.70
32787;DHT22;19139;49.372;8.580;2022-09-25T04:51:01;20.20;93.70
32787;DHT22;19139;49.372;8.580;2022-09-25T04:53:29;20.20;93.70
32787;DHT22;19139;49.372;8.580;2022-09-25T04:56:04;20.30;93.80
32787;DHT22;19139;49.372;8.580;2022-09-25T04:58:43;20.30;93.80
32787;DHT22;19139;49.372;8.580;2022-09-25T05:01:10;20.20;93.70
32787;DHT22;19139;49.372;8.580;2022-09-25T05:03:37;20.30;93.80
32787;DHT22;19139;49.372;8.580;2022-09-25T05:06:04;20.20;93.70
32787;DHT22;19139;49.372;8.580;2022-09-25T05:08:30;20.20;93.70
32787;DHT22;19139;49.372;8.580;2022-09-25T05:10:57;20.20;93.70
32787;DHT22;19139;49.372;8.580;2022-09-25T05:13:24;20.30;93.70
32787;DHT22;19139;49.372;8.580;2022-09-25T05:15:50;20.20;93.70
32787;DHT22;19139;49.372;8.580;2022-09-25T05:18:22;20.20;93.70
32787;DHT22;19139;49.372;8.580;2022-09-25T05:20:50;20.20;93.70
32787;DHT22;19139;49.372;8.580;2022-09-25T05:23:19;20.20;93.70
32787;DHT22;19139;49.372;8.580;2022-09-25T05:25:52;20.20;93.70
32787;DHT22;19139;49.372;8.580;2022-09-25T05:28:20;20.30;93.70
32787;DHT22;19139;49.372;8.580;2022-09-25T05:30:49;20.30;93.70
32787;DHT22;19139;49.372;8.580;2022-09-25T05:33:15;20.20;93.70
32787;DHT22;19139;49.372;8.580;2022-09-25T05:35:43;20.20;93.70
32787;DHT22;19139;49.372;8.580;2022-09-25T05:38:10;20.20;93.70
32787;DHT22;19139;49.372;8.580;2022-09-25T05:40:37;20.20;93.70
32787;DHT22;19139;49.372;8.580;2022-09-25T05:43:04;20.20;93.70
32787;DHT22;19139;49.372;8.580;2022-09-25T05:45:31;20.20;93.70
32787;DHT22;19139;49.372;8.580;2022-09-25T05:48:06;20.20;93.70
32787;DHT22;19139;49.372;8.580;2022-09-25T05:50:36;20.20;93.70
32787;DHT22;19139;49.372;8.580;2022-09-25T05:53:04;20.30;93.70
32787;DHT22;19139;49.372;8.580;2022-09-25T05:55:35;20.20;93.70
32787;DHT22;19139;49.372;8.580;2022-09-25T05:58:03;20.30;93.70
32787;DHT22;19139;49.372;8.580;2022-09-25T06:00:31;20.20;93.60
32787;DHT22;19139;49.372;8.580;2022-09-25T06:03:00;20.20;93.60
32787;DHT22;19139;49.372;8.580;2022-09-25T06:05:32;20.20;93.60
32787;DHT22;19139;49.372;8.580;2022-09-25T06:08:03;20.20;93.60
32787;DHT22;19139;49.372;8.580;2022-09-25T06:10:31;20.20;93.60
32787;DHT22;19139;49.372;8.580;2022-09-25T06:12:59;20.20;93.60
32787;DHT22;19139;49.372;8.580;2022-09-25T06:15:35;20.20;93.60
32787;DHT22;19139;49.372;8.580;2022-09-25T06:18:07;20.30;93.60
32787;DHT22;19139;49.372;8.580;2022-09-25T06:20:35;20.20;93.60
32787;DHT22;19139;49.372;8.580;2022-09-25T06:23:02;20.20;93.60
32787;DHT22;19139;49.372;8.580;2022-09-25T06:25:33;20.20;93.90
32787;DHT22;19139;49.372;8.580;2022-09-25T06:28:02;20.20;93.60
32787;DHT22;19139;49.372;8.580;2022-09-25T06:30:32;20.20;93.60
32787;DHT22;19139;49.372;8.580;2022-09-25T06:33:04;20.20;93.60
32787;DHT22;19139;49.372;8.580;2022-09-25T06:35:32;20.20;93.60
32787;DHT22;19139;49.372;8.580;2022-09-25T06:38:03;20.20;93.60
32787;DHT22;19139;49.372;8.580;2022-09-25T06:40:30;20.20;93.60
32787;DHT22;19139;49.372;8.580;2022-09-25T06:43:01;20.30;93.60
32787;DHT22;19139;49.372;8.580;2022-09-25T06:45:30;20.20;93.60
32787;DHT22;19139;49.372;8.580;2022-09-25T06:48:11;20.20;93.90
32787;DHT22;19139;49.372;8.580;2022-09-25T06:53:14;20.20;93.60
32787;DHT22;19139;49.372;8.580;2022-09-25T06:55:46;20.20;93.60
32787;DHT22;19139;49.372;8.580;2022-09-25T06:58:15;20.20;93.60
32787;DHT22;19139;49.372;8.580;2022-09-25T07:00:50;20.30;93.60
32787;DHT22;19139;49.372;8.580;2022-09-25T07:03:22;20.20;93.60
32787;DHT22;19139;49.372;8.580;2022-09-25T07:06:10;20.20;93.60
32787;DHT22;19139;49.372;8.580;2022-09-25T07:08:37;20.20;93.50
32787;DHT22;19139;49.372;8.580;2022-09-25T07:11:04;20.20;93.60
32787;DHT22;19139;49.372;8.580;2022-09-25T07:13:33;20.20;93.50
32787;DHT22;19139;49.372;8.580;2022-09-25T07:16:07;20.20;93.50
32787;DHT22;19139;49.372;8.580;2022-09-25T07:18:34;20.20;93.60
32787;DHT22;19139;49.372;8.580;2022-09-25T07:21:06;20.20;93.50
32787;DHT22;19139;49.372;8.580;2022-09-25T07:23:33;20.20;93.50
32787;DHT22;19139;49.372;8.580;2022-09-25T07:26:14;20.20;93.50
32787;DHT22;19139;49.372;8.580;2022-09-25T07:28:43;20.20;93.50
32787;DHT22;19139;49.372;8.580;2022-09-25T07:31:16;20.20;93.50
32787;DHT22;19139;49.372;8.580;2022-09-25T07:33:44;20.20;93.60
32787;DHT22;19139;49.372;8.580;2022-09-25T07:36:12;20.20;93.50
32787;DHT22;19139;49.372;8.580;2022-09-25T07:38:39;20.20;93.50
32787;DHT22;19139;49.372;8.580;2022-09-25T07:41:10;20.20;93.50
32787;DHT22;19139;49.372;8.580;2022-09-25T07:43:38;20.20;93.50
32787;DHT22;19139;49.372;8.580;2022-09-25T07:46:05;20.30;93.50
32787;DHT22;19139;49.372;8.580;2022-09-25T07:48:32;20.20;93.50
32787;DHT22;19139;49.372;8.580;2022-09-25T07:51:00;20.20;93.50
32787;DHT22;19139;49.372;8.580;2022-09-25T07:53:27;20.20;93.50
32787;DHT22;19139;49.372;8.580;2022-09-25T07:55:58;20.30;93.50
32787;DHT22;19139;49.372;8.580;2022-09-25T07:58:31;20.20;93.50
32787;DHT22;19139;49.372;8.580;2022-09-25T08:01:05;20.30;93.50
32787;DHT22;19139;49.372;8.580;2022-09-25T08:03:33;20.30;93.50
32787;DHT22;19139;49.372;8.580;2022-09-25T08:06:08;20.30;93.50
32787;DHT22;19139;49.372;8.580;2022-09-25T08:08:38;20.30;93.50
32787;DHT22;19139;49.372;8.580;2022-09-25T08:11:07;20.20;93.50
32787;DHT22;19139;49.372;8.580;2022-09-25T08:13:37;20.20;93.50
32787;DHT22;19139;49.372;8.580;2022-09-25T08:16:09;20.30;93.50
32787;DHT22;19139;49.372;8.580;2022-09-25T08:18:40;20.30;93.50
32787;DHT22;19139;49.372;8.580;2022-09-25T08:21:08;20.20;93.40
32787;DHT22;19139;49.372;8.580;2022-09-25T08:23:35;20.30;93.50
32787;DHT22;19139;49.372;8.580;2022-09-25T08:26:02;20.30;93.50
32787;DHT22;19139;49.372;8.580;2022-09-25T08:28:29;20.30;93.50
32787;DHT22;19139;49.372;8.580;2022-09-25T08:31:00;20.30;93.50
32787;DHT22;19139;49.372;8.580;2022-09-25T08:33:27;20.30;93.50
32787;DHT22;19139;49.372;8.580;2022-09-25T08:36:12;20.30;93.40
32787;DHT22;19139;49.372;8.580;2022-09-25T08:38:39;20.30;93.40
32787;DHT22;19139;49.372;8.580;2022-09-25T08:41:14;20.30;93.40
32787;DHT22;19139;49.372;8.580;2022-09-25T08:46:54;20.30;93.40
32787;DHT22;19139;49.372;8.580;2022-09-25T08:50:12;20.30;93.50
32787;DHT22;19139;49.372;8.580;2022-09-25T08:52:42;20.30;93.60
32787;DHT22;19139;49.372;8.580;2022-09-25T08:55:25;20.30;93.50
32787;DHT22;19139;49.372;8.580;2022-09-25T08:58:22;20.30;93.50
32787;DHT22;19139;49.372;8.580;2022-09-25T09:00:56;20.30;93.50
32787;DHT22;19139;49.372;8.580;2022-09-25T09:03:24;20.30;93.50
32787;DHT22;19139;49.372;8.580;2022-09-25T09:06:02;20.30;93.50
32787;DHT22;19139;49.372;8.580;2022-09-25T09:08:37;20.30;93.50
32787;DHT22;19139;49.372;8.580;2022-09-25T09:11:18;20.40;93.50
32787;DHT22;19139;49.372;8.580;2022-09-25T09:13:57;20.30;93.50
32787;DHT22;19139;49.372;8.580;2022-09-25T09:16:41;20.30;93.50
32787;DHT22;19139;49.372;8.580;2022-09-25T09:19:14;20.40;93.50
32787;DHT22;19139;49.372;8.580;2022-09-25T09:24:40;20.40;93.50
32787;DHT22;19139;49.372;8.580;2022-09-25T09:30:11;20.40;93.50
32787;DHT22;19139;49.372;8.580;2022-09-25T09:35:41;20.40;93.50
32787;DHT22;19139;49.372;8.580;2022-09-25T09:38:47;20.40;93.40
32787;DHT22;19139;49.372;8.580;2022-09-25T09:41:35;20.40;93.40
32787;DHT22;19139;49.372;8.580;2022-09-25T09:47:13;20.40;93.40
32787;DHT22;19139;49.372;8.580;2022-09-25T09:50:05;20.40;93.40
32787;DHT22;19139;49.372;8.580;2022-09-25T09:52:45;20.40;93.40
32787;DHT22;19139;49.372;8.580;2022-09-25T09:55:29;20.40;93.40
32787;DHT22;19139;49.372;8.580;2022-09-25T09:58:10;20.40;93.40
32787;DHT22;19139;49.372;8.580;2022-09-25T10:00:43;20.40;93.40
32787;DHT22;19139;49.372;8.580;2022-09-25T10:03:18;20.40;93.40
32787;DHT22;19139;49.372;8.580;2022-09-25T10:05:48;20.40;93.40
32787;DHT22;19139;49.372;8.580;2022-09-25T10:08:15;20.40;93.40
32787;DHT22;19139;49.372;8.580;2022-09-25T10:10:45;20.40;93.40
32787;DHT22;19139;49.372;8.580;2022-09-25T10:16:00;20.40;93.40
32787;DHT22;19139;49.372;8.580;2022-09-25T10:18:52;20.40;93.40
32787;DHT22;19139;49.372;8.580;2022-09-25T10:21:18;20.40;93.40
32787;DHT22;19139;49.372;8.580;2022-09-25T10:23:51;20.40;93.40
32787;DHT22;19139;49.372;8.580;2022-09-25T10:26:28;20.40;93.40
32787;DHT22;19139;49.372;8.580;2022-09-25T10:28:57;20.40;93.40
32787;DHT22;19139;49.372;8.580;2022-09-25T10:31:27;20.40;93.40
32787;DHT22;19139;49.372;8.580;2022-09-25T10:34:05;20.40;93.40
32787;DHT22;19139;49.372;8.580;2022-09-25T10:39:04;20.40;93.40
32787;DHT22;19139;49.372;8.580;2022-09-25T10:41:51;20.40;93.40
32787;DHT22;19139;49.372;8.580;2022-09-25T10:44:21;20.40;93.40
32787;DHT22;19139;49.372;8.580;2022-09-25T10:46:48;20.40;93.40
32787;DHT22;19139;49.372;8.580;2022-09-25T10:49:45;20.40;93.40
32787;DHT22;19139;49.372;8.580;2022-09-25T10:52:45;20.40;93.40
32787;DHT22;19139;49.372;8.580;2022-09-25T10:55:28;20.40;93.40
32787;DHT22;19139;49.372;8.580;2022-09-25T10:58:13;20.40;93.40
32787;DHT22;19139;49.372;8.580;2022-09-25T11:03:22;20.40;93.40
32787;DHT22;19139;49.372;8.580;2022-09-25T11:08:49;20.40;93.40
32787;DHT22;19139;49.372;8.580;2022-09-25T11:11:23;20.40;93.70
32787;DHT22;19139;49.372;8.580;2022-09-25T11:13:55;20.40;93.30
32787;DHT22;19139;49.372;8.580;2022-09-25T11:24:37;20.40;93.30
32787;DHT22;19139;49.372;8.580;2022-09-25T11:27:20;20.40;93.40
32787;DHT22;19139;49.372;8.580;2022-09-25T11:30:02;20.40;93.40
32787;DHT22;19139;49.372;8.580;2022-09-25T11:35:31;20.40;93.40
32787;DHT22;19139;49.372;8.580;2022-09-25T11:47:10;20.40;93.40
32787;DHT22;19139;49.372;8.580;2022-09-25T11:49:40;20.40;93.40
32787;DHT22;19139;49.372;8.580;2022-09-25T11:58:04;20.40;93.40
32787;DHT22;19139;49.372;8.580;2022-09-25T12:00:46;20.40;93.40
32787;DHT22;19139;49.372;8.580;2022-09-25T12:14:56;20.50;93.50
32787;DHT22;19139;49.372;8.580;2022-09-25T12:20:36;20.40;93.40
32787;DHT22;19139;49.372;8.580;2022-09-25T12:30:59;20.40;93.40
32787;DHT22;19139;49.372;8.580;2022-09-25T12:36:38;20.50;93.50
32787;DHT22;19139;49.372;8.580;2022-09-25T12:39:33;20.50;93.50
32787;DHT22;19139;49.372;8.580;2022-09-25T12:47:32;20.50;93.50
32787;DHT22;19139;49.372;8.580;2022-09-25T12:50:26;20.40;93.50
32787;DHT22;19139;49.372;8.580;2022-09-25T12:53:00;20.50;93.50
32787;DHT22;19139;49.372;8.580;2022-09-25T12:55:37;20.50;93.50
32787;DHT22;19139;49.372;8.580;2022-09-25T12:58:24;20.50;93.50
32787;DHT22;19139;49.372;8.580;2022-09-25T13:01:03;20.40;93.40
32787;DHT22;19139;49.372;8.580;2022-09-25T13:04:19;20.50;93.50
32787;DHT22;19139;49.372;8.580;2022-09-25T13:06:54;20.40;93.40
32787;DHT22;19139;49.372;8.580;2022-09-25T13:17:33;20.40;93.40
32787;DHT22;19139;49.372;8.580;2022-09-25T13:22:57;20.50;93.50
32787;DHT22;19139;49.372;8.580;2022-09-25T13:25:25;20.50;93.50
32787;DHT22;19139;49.372;8.580;2022-09-25T13:27:52;20.50;93.40
32787;DHT22;19139;49.372;8.580;2022-09-25T13:30:27;20.50;93.40
32787;DHT22;19139;49.372;8.580;2022-09-25T13:32:58;20.50;93.40
32787;DHT22;19139;49.372;8.580;2022-09-25T13:35:33;20.50;93.40
32787;DHT22;19139;49.372;8.580;2022-09-25T13:38:10;20.50;93.40
32787;DHT22;19139;49.372;8.580;2022-09-25T13:40:49;20.50;93.40
32787;DHT22;19139;49.372;8.580;2022-09-25T13:48:44;20.60;93.40
32787;DHT22;19139;49.372;8.580;2022-09-25T13:53:58;20.60;93.50
32787;DHT22;19139;49.372;8.580;2022-09-25T14:04:36;20.50;93.50
32787;DHT22;19139;49.372;8.580;2022-09-25T14:07:12;20.50;93.50
32787;DHT22;19139;49.372;8.580;2022-09-25T14:09:45;20.50;93.50
32787;DHT22;19139;49.372;8.580;2022-09-25T14:12:32;20.50;93.50
32787;DHT22;19139;49.372;8.580;2022-09-25T14:17:34;20.50;93.50
32787;DHT22;19139;49.372;8.580;2022-09-25T14:20:13;20.50;93.60
32787;DHT22;19139;49.372;8.580;2022-09-25T14:22:51;20.50;93.50
32787;DHT22;19139;49.372;8.580;2022-09-25T14:25:34;20.50;93.50
32787;DHT22;19139;49.372;8.580;2022-09-25T14:28:24;20.50;93.60
32787;DHT22;19139;49.372;8.580;2022-09-25T14:31:15;20.50;93.60
32787;DHT22;19139;49.372;8.580;2022-09-25T14:33:56;20.50;93.60
32787;DHT22;19139;49.372;8.580;2022-09-25T14:44:53;20.50;93.60
32787;DHT22;19139;49.372;8.580;2022-09-25T14:47:37;20.60;93.60
32787;DHT22;19139;49.372;8.580;2022-09-25T14:50:26;20.60;94.00
32787;DHT22;19139;49.372;8.580;2022-09-25T14:53:01;20.50;93.60
32787;DHT22;19139;49.372;8.580;2022-09-25T14:55:37;20.50;93.60
32787;DHT22;19139;49.372;8.580;2022-09-25T14:58:12;20.50;93.60
32787;DHT22;19139;49.372;8.580;2022-09-25T15:00:50;20.50;93.60
32787;DHT22;19139;49.372;8.580;2022-09-25T15:03:27;20.60;93.60
32787;DHT22;19139;49.372;8.580;2022-09-25T15:06:01;20.50;93.60
32787;DHT22;19139;49.372;8.580;2022-09-25T15:08:39;20.60;93.60
32787;DHT22;19139;49.372;8.580;2022-09-25T15:11:16;20.60;93.60
32787;DHT22;19139;49.372;8.580;2022-09-25T15:13:44;20.60;93.60
32787;DHT22;19139;49.372;8.580;2022-09-25T15:16:19;20.60;93.60
32787;DHT22;19139;49.372;8.580;2022-09-25T15:19:31;20.60;93.60
32787;DHT22;19139;49.372;8.580;2022-09-25T15:22:08;20.60;93.60
32787;DHT22;19139;49.372;8.580;2022-09-25T15:24:55;20.60;93.60
32787;DHT22;19139;49.372;8.580;2022-09-25T15:27:29;20.60;93.60
32787;DHT22;19139;49.372;8.580;2022-09-25T15:30:01;20.60;93.60
32787;DHT22;19139;49.372;8.580;2022-09-25T15:32:38;20.60;93.60
32787;DHT22;19139;49.372;8.580;2022-09-25T15:35:21;20.60;93.60
32787;DHT22;19139;49.372;8.580;2022-09-25T15:38:10;20.60;93.60
32787;DHT22;19139;49.372;8.580;2022-09-25T15:40:41;20.50;93.60
32787;DHT22;19139;49.372;8.580;2022-09-25T15:43:14;20.60;93.60
32787;DHT22;19139;49.372;8.580;2022-09-25T15:48:40;20.50;93.60
32787;DHT22;19139;49.372;8.580;2022-09-25T15:51:20;20.60;93.60
32787;DHT22;19139;49.372;8.580;2022-09-25T15:53:57;20.60;93.60
32787;DHT22;19139;49.372;8.580;2022-09-25T15:56:37;20.60;93.60
32787;DHT22;19139;49.372;8.580;2022-09-25T15:59:34;20.50;93.60
32787;DHT22;19139;49.372;8.580;2022-09-25T16:02:17;20.60;93.60
32787;DHT22;19139;49.372;8.580;2022-09-25T16:05:10;20.50;93.60
32787;DHT22;19139;49.372;8.580;2022-09-25T16:07:43;20.60;93.60
32787;DHT22;19139;49.372;8.580;2022-09-25T16:12:49;20.60;93.60
32787;DHT22;19139;49.372;8.580;2022-09-25T16:18:02;20.60;93.50
32787;DHT22;19139;49.372;8.580;2022-09-25T16:20:45;20.50;93.60
32787;DHT22;19139;49.372;8.580;2022-09-25T16:23:26;20.60;93.60
32787;DHT22;19139;49.372;8.580;2022-09-25T16:25:56;20.50;93.70
32787;DHT22;19139;49.372;8.580;2022-09-25T16:28:29;20.50;93.80
32787;DHT22;19139;49.372;8.580;2022-09-25T16:31:01;20.60;93.90
32787;DHT22;19139;49.372;8.580;2022-09-25T16:33:38;20.60;94.00
32787;DHT22;19139;49.372;8.580;2022-09-25T16:36:11;20.60;94.10
32787;DHT22;19139;49.372;8.580;2022-09-25T16:41:37;20.60;94.20
32787;DHT22;19139;49.372;8.580;2022-09-25T16:44:14;20.60;94.30
32787;DHT22;19139;49.372;8.580;2022-09-25T16:47:04;20.60;94.40
32787;DHT22;19139;49.372;8.580;2022-09-25T16:49:28;20.60;94.40
32787;DHT22;19139;49.372;8.580;2022-09-25T16:51:58;20.60;94.50
32787;DHT22;19139;49.372;8.580;2022-09-25T16:54:27;20.60;94.60
32787;DHT22;19139;49.372;8.580;2022-09-25T16:56:57;20.60;94.60
32787;DHT22;19139;49.372;8.580;2022-09-25T16:59:26;20.60;94.60
32787;DHT22;19139;49.372;8.580;2022-09-25T17:02:02;20.60;94.60
32787;DHT22;19139;49.372;8.580;2022-09-25T17:04:30;20.60;94.60
32787;DHT22;19139;49.372;8.580;2022-09-25T17:06:58;20.60;94.60
32787;DHT22;19139;49.372;8.580;2022-09-25T17:09:27;20.60;94.70
32787;DHT22;19139;49.372;8.580;2022-09-25T17:12:17;20.60;94.70
32787;DHT22;19139;49.372;8.580;2022-09-25T17:14:46;20.60;94.70
32787;DHT22;19139;49.372;8.580;2022-09-25T17:17:16;20.60;94.70
32787;DHT22;19139;49.372;8.580;2022-09-25T17:19:43;20.60;94.80
32787;DHT22;19139;49.372;8.580;2022-09-25T17:22:09;20.60;94.80
32787;DHT22;19139;49.372;8.580;2022-09-25T17:24:41;20.60;94.70
32787;DHT22;19139;49.372;8.580;2022-09-25T17:27:14;20.60;94.70
32787;DHT22;19139;49.372;8.580;2022-09-25T17:29:42;20.60;94.70
32787;DHT22;19139;49.372;8.580;2022-09-25T17:32:12;20.60;94.60
32787;DHT22;19139;49.372;8.580;2022-09-25T17:34:39;20.60;94.60
32787;DHT22;19139;49.372;8.580;2022-09-25T17:37:11;20.60;94.60
32787;DHT22;19139;49.372;8.580;2022-09-25T17:39:38;20.60;94.50
32787;DHT22;19139;49.372;8.580;2022-09-25T17:42:04;20.60;94.50
32787;DHT22;19139;49.372;8.580;2022-09-25T17:44:31;20.60;94.50
32787;DHT22;19139;49.372;8.580;2022-09-25T17:46:58;20.60;94.50
32787;DHT22;19139;49.372;8.580;2022-09-25T17:49:31;20.60;94.40
32787;DHT22;19139;49.372;8.580;2022-09-25T17:51:57;20.60;94.40
32787;DHT22;19139;49.372;8.580;2022-09-25T17:54:24;20.60;94.40
32787;DHT22;19139;49.372;8.580;2022-09-25T17:56:52;20.60;94.30
32787;DHT22;19139;49.372;8.580;2022-09-25T17:59:18;20.60;94.30
32787;DHT22;19139;49.372;8.580;2022-09-25T18:01:45;20.60;94.30
32787;DHT22;19139;49.372;8.580;2022-09-25T18:04:20;20.60;94.30
32787;DHT22;19139;49.372;8.580;2022-09-25T18:06:48;20.60;94.30
32787;DHT22;19139;49.372;8.580;2022-09-25T18:09:15;20.60;94.20
32787;DHT22;19139;49.372;8.580;2022-09-25T18:11:41;20.60;94.20
32787;DHT22;19139;49.372;8.580;2022-09-25T18:14:14;20.60;94.20
32787;DHT22;19139;49.372;8.580;2022-09-25T18:16:42;20.60;94.20
32787;DHT22;19139;49.372;8.580;2022-09-25T18:19:14;20.60;94.10
32787;DHT22;19139;49.372;8.580;2022-09-25T18:21:59;20.60;94.10
32787;DHT22;19139;49.372;8.580;2022-09-25T18:24:48;20.60;94.10
32787;DHT22;19139;49.372;8.580;2022-09-25T18:27:18;20.60;94.10
32787;DHT22;19139;49.372;8.580;2022-09-25T18:29:44;20.60;94.10
32787;DHT22;19139;49.372;8.580;2022-09-25T18:32:13;20.60;94.10
32787;DHT22;19139;49.372;8.580;2022-09-25T18:34:40;20.50;94.10
32787;DHT22;19139;49.372;8.580;2022-09-25T18:37:07;20.60;94.00
32787;DHT22;19139;49.372;8.580;2022-09-25T18:39:34;20.60;94.00
32787;DHT22;19139;49.372;8.580;2022-09-25T18:42:01;20.60;94.00
32787;DHT22;19139;49.372;8.580;2022-09-25T18:44:27;20.60;94.00
32787;DHT22;19139;49.372;8.580;2022-09-25T18:46:54;20.50;94.00
32787;DHT22;19139;49.372;8.580;2022-09-25T18:49:21;20.50;94.00
32787;DHT22;19139;49.372;8.580;2022-09-25T18:51:49;20.60;94.00
32787;DHT22;19139;49.372;8.580;2022-09-25T18:54:21;20.60;94.00
32787;DHT22;19139;49.372;8.580;2022-09-25T18:56:48;20.60;94.00
32787;DHT22;19139;49.372;8.580;2022-09-25T18:59:15;20.60;94.00